Time;durP1;ratioP1;P1;durP2;ratioP2;P2;SDS_P1;SDS_P2;PMS_P1;PMS_P2;Temp;Humidity;BMP_temperature;BMP_pressure;BME280_temperature;BME280_humidity;BME280_pressure;Samples;Min_cycle;Max_cycle;Signal;HPM_P1;HPM_P2
2022/03/23 00:01:46;;;;;;;39.60;23.20;;;;;;;;;;5053122;28;20147;-64
2022/03/23 00:04:12;;;;;;;38.70;23.25;;;;;;;;;;5071459;28;20044;-64
2022/03/23 00:06:38;;;;;;;43.10;23.73;;;;;;;;;;5071371;28;20123;-64
2022/03/23 00:09:05;;;;;;;38.40;22.80;;;;;;;;;;5070398;28;20045;-64
2022/03/23 00:11:31;;;;;;;38.42;23.23;;;;;;;;;;5055760;28;20076;-64
2022/03/23 00:13:57;;;;;;;39.00;23.40;;;;;;;;;;5075228;28;20032;-64
2022/03/23 00:16:24;;;;;;;38.55;22.38;;;;;;;;;;5074657;28;20597;-64
2022/03/23 00:18:50;;;;;;;36.53;22.20;;;;;;;;;;5075444;28;20040;-64
2022/03/23 00:21:16;;;;;;;43.78;24.02;;;;;;;;;;5075018;28;20063;-64
2022/03/23 00:23:42;;;;;;;39.35;22.83;;;;;;;;;;5074668;28;20128;-64
2022/03/23 00:26:08;;;;;;;39.78;23.33;;;;;;;;;;5074971;28;20097;-64
2022/03/23 00:28:34;;;;;;;39.28;22.23;;;;;;;;;;5074564;28;20041;-64
2022/03/23 00:31:00;;;;;;;41.17;24.55;;;;;;;;;;5074259;28;20044;-64
2022/03/23 00:33:26;;;;;;;42.33;24.67;;;;;;;;;;5074901;28;20038;-64
2022/03/23 00:35:53;;;;;;;47.25;23.67;;;;;;;;;;5074868;28;20045;-64
2022/03/23 00:38:20;;;;;;;41.58;24.70;;;;;;;;;;5073927;28;20049;-64
2022/03/23 00:40:46;;;;;;;42.25;23.77;;;;;;;;;;5074818;28;20119;-64
2022/03/23 00:43:13;;;;;;;47.22;24.90;;;;;;;;;;5074990;28;20563;-64
2022/03/23 00:45:39;;;;;;;37.95;23.05;;;;;;;;;;5074362;28;20040;-64
2022/03/23 00:48:06;;;;;;;45.90;24.50;;;;;;;;;;5074552;28;20548;-64
2022/03/23 00:50:33;;;;;;;42.40;24.40;;;;;;;;;;5074702;28;20040;-64
2022/03/23 00:52:59;;;;;;;42.90;23.38;;;;;;;;;;5074122;28;20048;-64
2022/03/23 00:55:25;;;;;;;42.90;25.05;;;;;;;;;;5074605;28;20487;-64
2022/03/23 00:57:51;;;;;;;41.70;24.98;;;;;;;;;;5074449;28;20146;-64
2022/03/23 01:00:20;;;;;;;45.92;25.63;;;;;;;;;;5073790;28;20562;-64
2022/03/23 01:02:46;;;;;;;43.60;24.13;;;;;;;;;;5074203;28;20040;-64
2022/03/23 01:05:13;;;;;;;39.33;23.23;;;;;;;;;;5074161;28;20036;-64
2022/03/23 01:07:40;;;;;;;39.00;23.58;;;;;;;;;;5073296;28;20042;-64
2022/03/23 01:10:11;;;;;;;40.05;23.45;;;;;;;;;;5074309;28;20052;-64
2022/03/23 01:12:38;;;;;;;41.93;24.23;;;;;;;;;;5074203;28;20195;-64
2022/03/23 01:15:06;;;;;;;44.33;24.40;;;;;;;;;;5073194;28;20072;-64
2022/03/23 01:17:32;;;;;;;44.28;23.73;;;;;;;;;;5074118;28;20442;-64
2022/03/23 01:19:58;;;;;;;40.75;23.35;;;;;;;;;;5074161;28;20048;-64
2022/03/23 01:22:25;;;;;;;40.15;23.08;;;;;;;;;;5072648;28;20101;-64
2022/03/23 01:24:51;;;;;;;43.78;23.85;;;;;;;;;;5074144;28;20044;-64
2022/03/23 01:27:17;;;;;;;45.78;24.90;;;;;;;;;;5073626;28;20532;-64
2022/03/23 01:29:43;;;;;;;42.08;25.08;;;;;;;;;;5073215;28;20049;-64
2022/03/23 01:32:10;;;;;;;46.33;24.48;;;;;;;;;;5055804;28;20094;-64
2022/03/23 01:34:36;;;;;;;46.53;24.33;;;;;;;;;;5074103;28;20485;-64
2022/03/23 01:37:02;;;;;;;45.38;26.70;;;;;;;;;;5072872;28;20493;-64
2022/03/23 01:39:28;;;;;;;43.60;25.77;;;;;;;;;;5073710;28;20140;-64
2022/03/23 01:41:54;;;;;;;41.78;23.63;;;;;;;;;;5073889;28;20628;-64
2022/03/23 01:44:22;;;;;;;44.85;24.83;;;;;;;;;;5073176;28;20052;-64
2022/03/23 01:47:00;;;;;;;47.88;25.52;;;;;;;;;;5073680;28;20044;-64
2022/03/23 01:49:26;;;;;;;48.60;25.85;;;;;;;;;;5073756;28;20041;-64
2022/03/23 01:51:52;;;;;;;47.08;25.77;;;;;;;;;;5072914;28;20039;-64
2022/03/23 01:54:18;;;;;;;43.97;26.27;;;;;;;;;;5073646;28;20674;-64
2022/03/23 01:56:45;;;;;;;47.88;26.80;;;;;;;;;;5073354;28;20044;-64
2022/03/23 01:59:11;;;;;;;50.05;27.27;;;;;;;;;;5072478;28;20045;-64
2022/03/23 02:01:38;;;;;;;51.60;27.63;;;;;;;;;;5073445;28;20498;-64
2022/03/23 02:04:04;;;;;;;45.42;27.27;;;;;;;;;;5073029;28;20072;-64
2022/03/23 02:06:31;;;;;;;46.97;27.35;;;;;;;;;;5072539;28;20159;-64
2022/03/23 02:08:58;;;;;;;47.35;27.48;;;;;;;;;;5073208;28;20045;-64
2022/03/23 02:11:24;;;;;;;51.00;27.35;;;;;;;;;;5073176;28;20105;-64
2022/03/23 02:13:53;;;;;;;55.30;29.92;;;;;;;;;;5072411;28;20487;-64
2022/03/23 02:16:19;;;;;;;54.38;29.50;;;;;;;;;;5072870;28;20436;-64
2022/03/23 02:18:45;;;;;;;51.65;29.33;;;;;;;;;;5073008;28;20072;-64
2022/03/23 02:21:14;;;;;;;54.42;28.73;;;;;;;;;;5072426;28;20593;-64
2022/03/23 02:23:40;;;;;;;50.55;27.70;;;;;;;;;;5073079;28;20040;-64
2022/03/23 02:26:06;;;;;;;51.72;28.67;;;;;;;;;;5072653;28;20045;-64
2022/03/23 02:28:33;;;;;;;47.67;28.63;;;;;;;;;;5037462;28;20041;-64
2022/03/23 02:30:59;;;;;;;48.22;27.83;;;;;;;;;;5072347;28;20040;-64
2022/03/23 02:33:25;;;;;;;48.10;26.02;;;;;;;;;;5072688;28;20032;-64
2022/03/23 02:35:52;;;;;;;43.75;26.20;;;;;;;;;;5071829;28;20045;-64
2022/03/23 02:38:18;;;;;;;48.35;25.80;;;;;;;;;;5072344;28;20052;-63
2022/03/23 02:40:44;;;;;;;46.28;26.77;;;;;;;;;;5072519;28;20060;-64
2022/03/23 02:43:10;;;;;;;43.80;26.05;;;;;;;;;;5071986;28;20044;-64
2022/03/23 02:45:36;;;;;;;45.78;27.48;;;;;;;;;;5072652;28;20478;-64
2022/03/23 02:48:06;;;;;;;50.70;28.15;;;;;;;;;;5072175;28;20123;-64
2022/03/23 02:50:33;;;;;;;46.85;26.63;;;;;;;;;;5071466;28;20059;-64
2022/03/23 03:04:14;;;;;;;48.67;27.20;;;;;;;;;;5072107;28;20072;-64
2022/03/23 03:06:40;;;;;;;43.75;25.88;;;;;;;;;;5071248;28;20094;-63
2022/03/23 03:09:06;;;;;;;46.35;25.50;;;;;;;;;;5072122;28;20467;-64
2022/03/23 03:11:32;;;;;;;43.58;25.35;;;;;;;;;;5072066;28;20041;-63
2022/03/23 03:13:58;;;;;;;49.55;26.80;;;;;;;;;;5071433;28;20063;-64
2022/03/23 03:16:25;;;;;;;48.60;26.63;;;;;;;;;;5071742;28;20456;-64
2022/03/23 03:18:51;;;;;;;44.78;26.08;;;;;;;;;;5071989;28;20045;-64
2022/03/23 03:21:18;;;;;;;52.47;27.42;;;;;;;;;;5071326;28;20072;-64
2022/03/23 03:23:44;;;;;;;51.75;28.23;;;;;;;;;;5071757;28;20055;-64
2022/03/23 03:26:11;;;;;;;49.08;26.80;;;;;;;;;;5071650;28;20394;-64
2022/03/23 03:28:38;;;;;;;46.83;26.80;;;;;;;;;;5070880;28;20610;-63
2022/03/23 03:31:05;;;;;;;54.03;28.27;;;;;;;;;;5071760;28;20390;-63
2022/03/23 03:33:31;;;;;;;48.47;26.58;;;;;;;;;;5071788;28;20119;-63
2022/03/23 03:35:57;;;;;;;48.03;26.55;;;;;;;;;;5070982;28;20043;-63
2022/03/23 03:38:23;;;;;;;48.75;26.63;;;;;;;;;;5071355;28;20097;-63
2022/03/23 03:40:49;;;;;;;50.13;27.63;;;;;;;;;;5071705;28;20044;-64
2022/03/23 03:43:16;;;;;;;50.05;26.10;;;;;;;;;;5071004;28;20139;-64
2022/03/23 03:45:43;;;;;;;49.63;27.33;;;;;;;;;;5071150;28;20055;-64
2022/03/23 03:48:09;;;;;;;50.25;27.40;;;;;;;;;;5071427;28;20041;-64
2022/03/23 03:50:35;;;;;;;52.22;27.10;;;;;;;;;;5070887;28;20121;-64
2022/03/23 03:53:01;;;;;;;48.45;27.35;;;;;;;;;;5071332;28;20055;-64
2022/03/23 03:55:27;;;;;;;47.38;27.23;;;;;;;;;;5071568;28;20059;-63
2022/03/23 03:57:54;;;;;;;44.92;26.13;;;;;;;;;;5070626;28;20045;-63
2022/03/23 04:00:20;;;;;;;47.95;27.10;;;;;;;;;;5071541;28;20415;-64
2022/03/23 04:02:46;;;;;;;53.35;26.65;;;;;;;;;;5071512;28;20143;-64
2022/03/23 04:05:12;;;;;;;47.53;26.80;;;;;;;;;;5070779;28;20125;-64
2022/03/23 04:07:38;;;;;;;46.92;25.42;;;;;;;;;;5071371;28;20492;-64
2022/03/23 04:10:04;;;;;;;48.28;26.67;;;;;;;;;;5071303;28;20037;-64
2022/03/23 04:12:30;;;;;;;44.30;24.48;;;;;;;;;;5070846;28;20123;-64
2022/03/23 04:14:56;;;;;;;47.58;26.33;;;;;;;;;;5071086;28;20612;-64
2022/03/23 04:17:22;;;;;;;48.88;26.23;;;;;;;;;;5071414;28;20033;-64
2022/03/23 04:19:48;;;;;;;47.85;26.73;;;;;;;;;;5070860;28;20052;-64
2022/03/23 04:22:14;;;;;;;45.58;25.70;;;;;;;;;;5071221;28;20578;-64
2022/03/23 04:24:40;;;;;;;49.38;26.50;;;;;;;;;;5071117;28;20095;-64
2022/03/23 04:27:06;;;;;;;51.15;25.90;;;;;;;;;;5070192;28;20091;-64
2022/03/23 04:29:32;;;;;;;46.03;26.58;;;;;;;;;;5070735;28;20040;-64
2022/03/23 04:31:59;;;;;;;48.22;26.48;;;;;;;;;;5071190;28;20123;-63
2022/03/23 04:34:25;;;;;;;48.45;27.23;;;;;;;;;;5070549;28;20123;-63
2022/03/23 04:36:51;;;;;;;41.53;24.58;;;;;;;;;;5070896;28;20117;-63
2022/03/23 04:39:18;;;;;;;48.15;26.15;;;;;;;;;;5071338;28;20530;-63
2022/03/23 04:41:44;;;;;;;51.97;26.77;;;;;;;;;;5070503;28;20094;-64
2022/03/23 04:44:11;;;;;;;47.90;26.58;;;;;;;;;;5071121;28;20040;-63
2022/03/23 04:46:37;;;;;;;50.60;27.58;;;;;;;;;;5070874;28;20048;-64
2022/03/23 04:49:03;;;;;;;48.67;26.67;;;;;;;;;;5070341;28;20056;-63
2022/03/23 04:51:31;;;;;;;44.42;25.05;;;;;;;;;;5071117;28;20398;-63
2022/03/23 04:53:57;;;;;;;50.42;25.65;;;;;;;;;;5071047;28;20063;-63
2022/03/23 04:56:23;;;;;;;47.90;26.35;;;;;;;;;;5070138;28;20044;-63
2022/03/23 04:58:49;;;;;;;46.75;26.15;;;;;;;;;;5073676;28;20047;-63
2022/03/23 05:01:15;;;;;;;48.55;26.30;;;;;;;;;;5074396;28;20478;-63
2022/03/23 05:03:41;;;;;;;46.08;25.15;;;;;;;;;;5073828;28;20059;-63
2022/03/23 05:06:07;;;;;;;51.13;25.90;;;;;;;;;;5074376;28;20071;-63
2022/03/23 05:08:33;;;;;;;48.10;27.23;;;;;;;;;;5074189;28;20051;-63
2022/03/23 05:10:59;;;;;;;51.42;26.88;;;;;;;;;;5073459;28;20435;-63
2022/03/23 05:13:25;;;;;;;50.97;26.42;;;;;;;;;;5074275;28;20107;-64
2022/03/23 05:15:51;;;;;;;44.50;25.52;;;;;;;;;;5074067;28;20079;-64
2022/03/23 05:18:18;;;;;;;48.42;26.70;;;;;;;;;;5073606;28;20090;-63
2022/03/23 05:20:44;;;;;;;48.03;27.67;;;;;;;;;;5074103;28;20041;-64
2022/03/23 05:23:10;;;;;;;49.25;27.27;;;;;;;;;;5073793;28;20041;-64
2022/03/23 05:25:36;;;;;;;52.05;26.27;;;;;;;;;;5073309;28;20098;-64
2022/03/23 05:28:02;;;;;;;48.85;26.30;;;;;;;;;;5073571;28;20051;-63
2022/03/23 05:30:28;;;;;;;52.60;25.85;;;;;;;;;;5073834;28;20136;-64
2022/03/23 05:32:54;;;;;;;53.08;26.73;;;;;;;;;;5073052;28;20040;-63
2022/03/23 05:35:20;;;;;;;46.22;26.27;;;;;;;;;;5073835;28;20238;-63
2022/03/23 05:37:46;;;;;;;56.20;27.02;;;;;;;;;;5073260;28;20485;-64
2022/03/23 05:40:13;;;;;;;48.83;27.00;;;;;;;;;;5073714;28;20052;-63
2022/03/23 05:42:40;;;;;;;55.15;27.55;;;;;;;;;;5073390;28;20087;-63
2022/03/23 05:45:06;;;;;;;47.85;26.90;;;;;;;;;;5073439;28;20040;-63
2022/03/23 05:47:32;;;;;;;49.85;25.30;;;;;;;;;;5073276;28;20033;-64
2022/03/23 05:49:58;;;;;;;52.70;26.80;;;;;;;;;;5072958;28;20041;-63
2022/03/23 05:52:24;;;;;;;54.97;28.05;;;;;;;;;;5073531;28;20662;-64
2022/03/23 05:54:51;;;;;;;49.80;26.27;;;;;;;;;;5073627;28;20186;-63
2022/03/23 05:57:17;;;;;;;51.75;26.17;;;;;;;;;;5072469;28;20398;-63
2022/03/23 05:59:43;;;;;;;54.13;28.13;;;;;;;;;;5073533;28;20055;-64
2022/03/23 06:02:09;;;;;;;52.97;28.00;;;;;;;;;;5073440;28;20124;-63
2022/03/23 06:04:35;;;;;;;54.70;27.70;;;;;;;;;;5072441;28;20047;-63
2022/03/23 06:07:01;;;;;;;50.67;26.83;;;;;;;;;;5073021;28;20514;-64
2022/03/23 06:09:27;;;;;;;53.00;27.92;;;;;;;;;;5072998;28;20063;-63
2022/03/23 06:11:53;;;;;;;53.95;27.42;;;;;;;;;;5072128;28;20044;-63
2022/03/23 06:14:19;;;;;;;59.15;29.33;;;;;;;;;;5073035;28;20045;-63
2022/03/23 06:16:45;;;;;;;57.30;28.50;;;;;;;;;;5054892;28;20501;-63
2022/03/23 06:19:13;;;;;;;53.17;30.20;;;;;;;;;;5054567;28;20106;-63
2022/03/23 06:21:40;;;;;;;51.47;27.88;;;;;;;;;;5073116;28;20080;-64
2022/03/23 06:24:06;;;;;;;50.35;26.60;;;;;;;;;;5073070;28;20051;-63
2022/03/23 06:26:32;;;;;;;50.10;26.70;;;;;;;;;;5053950;28;20044;-63
2022/03/23 06:28:58;;;;;;;51.90;27.73;;;;;;;;;;5072690;28;20041;-63
2022/03/23 06:31:24;;;;;;;56.13;28.45;;;;;;;;;;5072494;28;20033;-63
2022/03/23 06:33:50;;;;;;;53.30;28.70;;;;;;;;;;5072090;28;20383;-63
2022/03/23 06:36:16;;;;;;;54.30;29.33;;;;;;;;;;5072347;28;20098;-63
2022/03/23 06:38:42;;;;;;;55.22;29.38;;;;;;;;;;5072561;28;20045;-64
2022/03/23 06:41:08;;;;;;;55.10;29.60;;;;;;;;;;5072072;28;20036;-64
2022/03/23 06:43:35;;;;;;;53.10;30.23;;;;;;;;;;5072533;28;20068;-63
2022/03/23 06:46:01;;;;;;;52.00;27.90;;;;;;;;;;5072392;28;20048;-63
2022/03/23 06:48:27;;;;;;;59.88;30.80;;;;;;;;;;5071677;28;20120;-64
2022/03/23 06:50:53;;;;;;;55.78;30.67;;;;;;;;;;5071961;28;20065;-64
2022/03/23 06:53:20;;;;;;;55.33;30.00;;;;;;;;;;5069646;28;20029;-63
2022/03/23 06:55:46;;;;;;;61.00;32.15;;;;;;;;;;5053747;28;20049;-63
2022/03/23 06:58:12;;;;;;;61.92;31.25;;;;;;;;;;5051328;28;20063;-63
2022/03/23 07:00:39;;;;;;;58.75;31.27;;;;;;;;;;5052207;28;20477;-64
2022/03/23 07:03:05;;;;;;;62.58;32.28;;;;;;;;;;5057984;28;20044;-63
2022/03/23 07:05:33;;;;;;;59.50;31.88;;;;;;;;;;5071837;28;20044;-63
2022/03/23 07:10:44;;;;;;;63.08;32.75;;;;;;;;;;5070425;28;20136;-64
2022/03/23 07:13:10;;;;;;;60.38;31.75;;;;;;;;;;5072627;28;20044;-63
2022/03/23 07:15:36;;;;;;;63.33;33.83;;;;;;;;;;5060391;28;20457;-63
2022/03/23 07:18:02;;;;;;;61.45;32.75;;;;;;;;;;5066571;28;20033;-63
2022/03/23 07:20:29;;;;;;;60.58;31.38;;;;;;;;;;5069056;28;20105;-63
2022/03/23 07:22:55;;;;;;;54.42;30.77;;;;;;;;;;5070200;28;20036;-63
2022/03/23 07:25:21;;;;;;;63.08;33.28;;;;;;;;;;5051814;28;20071;-63
2022/03/23 07:27:47;;;;;;;56.50;32.08;;;;;;;;;;5061422;28;20055;-64
2022/03/23 07:30:13;;;;;;;55.17;31.27;;;;;;;;;;5061092;28;20040;-64
2022/03/23 07:32:39;;;;;;;49.75;30.08;;;;;;;;;;5051607;28;20041;-63
2022/03/23 07:35:07;;;;;;;57.28;32.08;;;;;;;;;;5058243;28;20039;-63
2022/03/23 07:37:33;;;;;;;55.55;31.55;;;;;;;;;;5066833;28;20134;-63
2022/03/23 07:39:59;;;;;;;59.35;33.42;;;;;;;;;;5069569;28;20639;-63
2022/03/23 07:42:26;;;;;;;54.45;30.38;;;;;;;;;;5064866;28;20050;-63
2022/03/23 07:44:52;;;;;;;51.97;30.33;;;;;;;;;;5066488;28;20079;-63
2022/03/23 07:47:19;;;;;;;53.35;30.58;;;;;;;;;;5054991;28;20049;-63
2022/03/23 07:49:45;;;;;;;46.92;29.65;;;;;;;;;;5066007;28;20128;-63
2022/03/23 07:52:11;;;;;;;54.33;30.90;;;;;;;;;;5046574;28;20522;-63
2022/03/23 07:54:37;;;;;;;50.03;31.25;;;;;;;;;;5058509;28;20064;-63
2022/03/23 07:57:03;;;;;;;52.05;30.75;;;;;;;;;;5061865;28;20075;-64
2022/03/23 07:59:29;;;;;;;52.55;30.90;;;;;;;;;;5068611;28;20123;-64
2022/03/23 08:01:55;;;;;;;50.85;29.30;;;;;;;;;;5065752;28;20037;-65
2022/03/23 08:04:21;;;;;;;47.85;28.25;;;;;;;;;;5063085;28;20071;-64
2022/03/23 08:06:47;;;;;;;52.35;30.67;;;;;;;;;;5057398;28;20469;-63
2022/03/23 08:09:13;;;;;;;51.80;30.77;;;;;;;;;;5053639;28;20048;-65
2022/03/23 08:11:39;;;;;;;47.10;27.98;;;;;;;;;;5047622;28;20033;-65
2022/03/23 08:14:05;;;;;;;45.25;28.42;;;;;;;;;;5055012;28;20033;-65
2022/03/23 08:16:31;;;;;;;44.63;27.23;;;;;;;;;;5062217;28;21437;-65
2022/03/23 08:18:57;;;;;;;48.13;27.50;;;;;;;;;;5051611;28;20223;-65
2022/03/23 08:21:23;;;;;;;44.13;27.38;;;;;;;;;;5055128;28;20124;-65
2022/03/23 08:23:50;;;;;;;41.85;27.08;;;;;;;;;;5057038;28;20083;-64
2022/03/23 08:26:17;;;;;;;45.28;27.02;;;;;;;;;;5060875;28;20476;-65
2022/03/23 08:28:43;;;;;;;40.22;25.48;;;;;;;;;;5053151;28;20051;-65
2022/03/23 08:31:10;;;;;;;42.53;26.05;;;;;;;;;;5062140;28;20107;-65
2022/03/23 08:33:36;;;;;;;42.08;26.88;;;;;;;;;;5071987;28;20052;-64
2022/03/23 08:36:03;;;;;;;45.22;26.85;;;;;;;;;;5066923;28;20040;-65
2022/03/23 08:38:29;;;;;;;39.78;24.60;;;;;;;;;;5070394;28;20058;-64
2022/03/23 08:40:55;;;;;;;39.85;23.88;;;;;;;;;;5068489;28;20033;-65
2022/03/23 08:43:21;;;;;;;38.60;24.77;;;;;;;;;;5065438;28;20068;-65
2022/03/23 08:45:48;;;;;;;40.95;24.98;;;;;;;;;;5067949;28;20107;-65
2022/03/23 08:48:14;;;;;;;37.05;23.02;;;;;;;;;;5054311;28;20616;-66
2022/03/23 08:50:40;;;;;;;35.40;22.88;;;;;;;;;;5064993;28;20131;-65
2022/03/23 08:53:07;;;;;;;33.47;22.10;;;;;;;;;;5071104;28;20367;-65
2022/03/23 08:55:33;;;;;;;32.95;20.70;;;;;;;;;;5068614;28;20037;-66
2022/03/23 08:57:59;;;;;;;30.30;21.30;;;;;;;;;;5051741;28;20065;-65
2022/03/23 09:00:25;;;;;;;30.20;20.33;;;;;;;;;;5056521;28;20056;-65
2022/03/23 09:02:51;;;;;;;30.50;20.67;;;;;;;;;;5070829;28;20049;-65
2022/03/23 09:05:19;;;;;;;30.33;20.38;;;;;;;;;;5059314;28;20041;-65
2022/03/23 09:07:45;;;;;;;30.50;20.13;;;;;;;;;;5053358;28;20049;-65
2022/03/23 09:10:13;;;;;;;31.23;20.60;;;;;;;;;;5068630;28;20041;-65
2022/03/23 09:12:40;;;;;;;30.23;20.02;;;;;;;;;;5065242;28;20048;-65
2022/03/23 09:15:07;;;;;;;29.95;19.67;;;;;;;;;;5068404;28;20036;-65
2022/03/23 09:17:33;;;;;;;30.35;19.02;;;;;;;;;;5068774;28;20044;-64
2022/03/23 09:20:02;;;;;;;27.60;18.90;;;;;;;;;;5072213;28;20071;-65
2022/03/23 09:22:29;;;;;;;29.55;18.33;;;;;;;;;;5066094;28;20051;-66
2022/03/23 09:24:55;;;;;;;29.77;18.35;;;;;;;;;;5060132;28;20075;-64
2022/03/23 09:27:21;;;;;;;27.88;19.30;;;;;;;;;;5072731;28;20078;-65
2022/03/23 09:29:47;;;;;;;26.45;16.98;;;;;;;;;;5074917;28;20090;-66
2022/03/23 09:32:14;;;;;;;27.10;17.80;;;;;;;;;;5063582;28;20112;-65
2022/03/23 09:34:41;;;;;;;24.98;17.55;;;;;;;;;;5062903;28;20732;-65
2022/03/23 09:39:52;;;;;;;26.85;17.98;;;;;;;;;;5064295;28;20052;-66
2022/03/23 09:42:18;;;;;;;26.15;18.73;;;;;;;;;;5056901;28;20041;-64
2022/03/23 09:44:47;;;;;;;28.98;17.08;;;;;;;;;;5072253;28;20045;-66
2022/03/23 09:47:14;;;;;;;26.83;18.08;;;;;;;;;;5072149;28;21246;-65
2022/03/23 09:49:40;;;;;;;29.52;19.27;;;;;;;;;;5068990;28;20036;-64
2022/03/23 09:52:06;;;;;;;26.63;19.27;;;;;;;;;;5052373;28;20045;-64
2022/03/23 09:54:32;;;;;;;29.65;19.15;;;;;;;;;;5053435;28;20041;-65
2022/03/23 09:56:58;;;;;;;25.48;19.00;;;;;;;;;;5047479;28;20114;-65
2022/03/23 09:59:24;;;;;;;26.90;17.98;;;;;;;;;;5053083;28;20094;-65
2022/03/23 10:02:03;;;;;;;25.58;18.05;;;;;;;;;;5061738;28;20041;-65
2022/03/23 10:04:29;;;;;;;29.20;18.35;;;;;;;;;;5058741;28;20503;-64
2022/03/23 10:06:55;;;;;;;29.15;18.75;;;;;;;;;;5041740;28;20080;-65
2022/03/23 10:09:27;;;;;;;26.80;18.73;;;;;;;;;;5064113;28;20045;-67
2022/03/23 10:12:25;;;;;;;22.92;16.98;;;;;;;;;;5051361;28;20032;-64
2022/03/23 10:15:10;;;;;;;22.15;16.17;;;;;;;;;;5037851;28;20053;-65
2022/03/23 10:17:42;;;;;;;20.02;14.57;;;;;;;;;;5053391;28;20063;-68
2022/03/23 10:20:08;;;;;;;;;;;;;;;;;;5046024;28;20812;-66
2022/03/23 10:22:34;;;;;;;20.40;15.45;;;;;;;;;;5045945;28;19924;-69
2022/03/23 10:25:19;;;;;;;20.98;14.93;;;;;;;;;;5051494;28;20040;-69
2022/03/23 10:27:46;;;;;;;23.30;15.50;;;;;;;;;;5052539;28;20503;-68
2022/03/23 10:30:13;;;;;;;24.02;14.52;;;;;;;;;;5042195;28;20098;-66
2022/03/23 10:32:43;;;;;;;24.98;15.43;;;;;;;;;;5049691;28;20043;-67
2022/03/23 10:35:12;;;;;;;18.35;14.50;;;;;;;;;;5056058;28;20037;-67
2022/03/23 10:37:38;;;;;;;20.42;14.07;;;;;;;;;;5067083;28;20106;-65
2022/03/23 10:40:08;;;;;;;22.00;14.40;;;;;;;;;;5067163;28;20131;-66
2022/03/23 10:42:39;;;;;;;18.45;14.02;;;;;;;;;;5068940;28;20124;-65
2022/03/23 10:45:08;;;;;;;17.00;12.43;;;;;;;;;;5059607;28;20051;-67
2022/03/23 10:47:34;;;;;;;24.90;12.90;;;;;;;;;;5062562;28;20106;-67
2022/03/23 10:50:17;;;;;;;20.00;13.52;;;;;;;;;;5065700;28;20044;-68
2022/03/23 10:52:49;;;;;;;20.85;13.05;;;;;;;;;;5067658;28;20048;-67
2022/03/23 10:55:16;;;;;;;17.55;12.10;;;;;;;;;;5060596;28;20043;-68
2022/03/23 10:57:45;;;;;;;23.77;13.35;;;;;;;;;;5048542;28;20746;-70
2022/03/23 11:00:17;;;;;;;19.58;13.82;;;;;;;;;;5041227;28;20051;-69
2022/03/23 11:02:47;;;;;;;20.25;15.07;;;;;;;;;;5048178;28;20107;-66
2022/03/23 11:05:33;;;;;;;18.52;13.88;;;;;;;;;;5065018;28;20043;-67
2022/03/23 11:08:07;;;;;;;18.35;12.48;;;;;;;;;;5054016;28;20068;-68
2022/03/23 11:16:07;;;;;;;21.25;13.30;;;;;;;;;;5067622;28;20128;-67
2022/03/23 11:18:33;;;;;;;20.33;12.18;;;;;;;;;;5069067;28;20107;-66
2022/03/23 11:21:00;;;;;;;19.13;12.43;;;;;;;;;;5068601;28;20045;-68
2022/03/23 11:23:27;;;;;;;21.90;12.85;;;;;;;;;;5050806;28;20052;-67
2022/03/23 11:26:00;;;;;;;18.23;11.35;;;;;;;;;;5052617;28;20050;-67
2022/03/23 11:28:28;;;;;;;22.63;12.38;;;;;;;;;;5067605;28;20558;-66
2022/03/23 11:30:55;;;;;;;28.77;11.98;;;;;;;;;;5039809;28;20056;-68
2022/03/23 11:33:23;;;;;;;22.45;11.57;;;;;;;;;;5049485;28;20778;-69
2022/03/23 11:35:50;;;;;;;20.35;12.63;;;;;;;;;;5052400;28;20041;-68
2022/03/23 11:38:26;;;;;;;22.25;12.07;;;;;;;;;;5051423;28;20075;-68
2022/03/23 11:43:34;;;;;;;19.33;11.60;;;;;;;;;;5328619;22;20144;-69
2022/03/23 11:46:00;;;;;;;20.38;11.43;;;;;;;;;;4998530;28;20103;-68
2022/03/23 11:48:46;;;;;;;21.38;10.85;;;;;;;;;;5005877;28;20038;-68
2022/03/23 11:51:21;;;;;;;20.20;10.60;;;;;;;;;;4998105;28;20595;-69
2022/03/23 11:54:06;;;;;;;20.73;9.93;;;;;;;;;;4997027;28;20061;-69
2022/03/23 11:56:39;;;;;;;17.67;10.77;;;;;;;;;;4998620;28;20152;-69
2022/03/23 11:59:38;;;;;;;23.77;10.77;;;;;;;;;;5005895;28;20072;-69
2022/03/23 12:02:08;;;;;;;21.85;10.82;;;;;;;;;;4982045;28;20053;-69
2022/03/23 12:04:34;;;;;;;26.30;9.45;;;;;;;;;;5010466;28;20709;-69
2022/03/23 12:07:03;;;;;;;22.35;8.20;;;;;;;;;;5003493;28;20544;-69
2022/03/23 12:09:44;;;;;;;20.48;8.40;;;;;;;;;;4997254;28;20046;-69
2022/03/23 12:12:32;;;;;;;43.70;9.80;;;;;;;;;;5021546;28;20037;-69
2022/03/23 12:15:17;;;;;;;21.90;8.27;;;;;;;;;;5009066;28;20038;-70
2022/03/23 12:17:58;;;;;;;22.73;7.20;;;;;;;;;;5006849;28;20046;-69
2022/03/23 12:20:28;;;;;;;24.40;8.35;;;;;;;;;;4991894;28;20067;-69
2022/03/23 12:22:57;;;;;;;18.88;7.72;;;;;;;;;;5004551;28;20132;-69
2022/03/23 12:25:29;;;;;;;18.50;5.55;;;;;;;;;;5003735;28;20050;-70
2022/03/23 12:27:55;;;;;;;23.55;5.47;;;;;;;;;;4997654;28;20399;-66
2022/03/23 12:30:27;;;;;;;22.05;6.75;;;;;;;;;;4997942;28;20054;-67
2022/03/23 12:32:58;;;;;;;18.08;6.20;;;;;;;;;;4998114;28;20046;-68
2022/03/23 12:35:34;;;;;;;20.67;6.50;;;;;;;;;;5000948;28;20164;-68
2022/03/23 12:38:01;;;;;;;17.13;5.88;;;;;;;;;;5001978;28;20061;-66
2022/03/23 12:40:43;;;;;;;23.05;7.07;;;;;;;;;;5003446;28;20395;-65
2022/03/23 12:43:10;;;;;;;20.85;6.93;;;;;;;;;;4993494;28;20050;-65
2022/03/23 12:45:39;;;;;;;18.42;7.05;;;;;;;;;;4986843;28;20046;-67
2022/03/23 12:57:49;;;;;;;19.17;6.97;;;;;;;;;;4987896;28;20046;-67
2022/03/23 12:59:17;;;;;;;18.77;7.18;;;;;;;;;;5004802;28;20051;-67
2022/03/23 13:01:44;;;;;;;22.38;6.80;;;;;;;;;;4983472;28;20057;-67
2022/03/23 13:04:22;;;;;;;16.58;8.18;;;;;;;;;;4988309;28;20077;-66
2022/03/23 13:06:48;;;;;;;20.95;7.97;;;;;;;;;;4979801;28;20038;-70
2022/03/23 13:09:24;;;;;;;20.17;7.45;;;;;;;;;;4986505;28;21844;-66
2022/03/23 13:11:56;;;;;;;19.58;7.88;;;;;;;;;;4992163;28;20980;-69
2022/03/23 13:14:22;;;;;;;19.52;7.80;;;;;;;;;;4992247;28;20097;-68
2022/03/23 13:16:49;;;;;;;15.30;7.28;;;;;;;;;;4986885;28;20066;-68
2022/03/23 13:19:19;;;;;;;17.63;6.85;;;;;;;;;;4975601;28;20050;-70
2022/03/23 13:21:48;;;;;;;19.63;7.00;;;;;;;;;;4982530;28;20049;-69
2022/03/23 13:24:14;;;;;;;15.85;5.85;;;;;;;;;;4991900;28;20137;-69
2022/03/23 13:26:42;;;;;;;18.70;6.05;;;;;;;;;;4987602;28;20054;-69
2022/03/23 13:29:12;;;;;;;16.08;6.82;;;;;;;;;;4988641;28;20034;-69
2022/03/23 13:31:40;;;;;;;21.48;7.68;;;;;;;;;;4988166;28;20042;-68
2022/03/23 13:34:09;;;;;;;23.52;8.02;;;;;;;;;;4977877;28;20046;-71
2022/03/23 13:36:36;;;;;;;18.10;6.70;;;;;;;;;;4985431;28;20167;-71
2022/03/23 13:39:12;;;;;;;16.15;7.38;;;;;;;;;;4983663;28;20395;-67
2022/03/23 13:47:31;;;;;;;15.45;5.25;;;;;;;;;;4933922;29;20055;-69
2022/03/23 13:49:57;;;;;;;18.50;5.30;;;;;;;;;;4947420;28;20039;-68
2022/03/23 13:52:25;;;;;;;19.60;4.15;;;;;;;;;;4956235;28;20404;-66
2022/03/23 13:54:52;;;;;;;17.65;5.97;;;;;;;;;;4990412;28;20124;-65
2022/03/23 13:57:19;;;;;;;22.25;6.35;;;;;;;;;;4979976;28;20125;-68
2022/03/23 13:59:47;;;;;;;18.13;5.43;;;;;;;;;;4988259;28;20129;-65
2022/03/23 14:02:16;;;;;;;13.95;4.65;;;;;;;;;;4985937;28;20056;-67
2022/03/23 14:04:42;;;;;;;17.25;5.47;;;;;;;;;;4985813;28;20038;-66
2022/03/23 14:07:11;;;;;;;15.18;6.57;;;;;;;;;;4985519;28;20137;-66
2022/03/23 14:09:38;;;;;;;19.92;6.60;;;;;;;;;;4975560;28;20062;-65
2022/03/23 14:12:08;;;;;;;17.60;6.03;;;;;;;;;;4985976;28;20108;-66
2022/03/23 14:14:36;;;;;;;19.75;5.80;;;;;;;;;;4985381;28;20045;-67
2022/03/23 14:17:07;;;;;;;13.18;5.97;;;;;;;;;;4987598;28;20084;-66
2022/03/23 14:19:42;;;;;;;16.23;6.90;;;;;;;;;;4976378;28;20081;-67
2022/03/23 14:22:11;;;;;;;20.42;6.47;;;;;;;;;;4985947;28;20043;-67
2022/03/23 14:24:37;;;;;;;20.27;6.75;;;;;;;;;;4981939;28;20039;-69
2022/03/23 14:27:16;;;;;;;13.45;6.03;;;;;;;;;;4969419;28;20050;-70
2022/03/23 14:29:43;;;;;;;19.88;7.05;;;;;;;;;;4987116;28;20065;-68
2022/03/23 14:32:13;;;;;;;15.00;6.60;;;;;;;;;;4983373;28;20413;-68
2022/03/23 14:34:46;;;;;;;15.68;6.53;;;;;;;;;;4977212;28;20039;-68
2022/03/23 14:37:13;;;;;;;16.60;6.68;;;;;;;;;;4984200;28;20042;-69
2022/03/23 14:39:43;;;;;;;14.18;6.07;;;;;;;;;;4983135;28;20507;-67
2022/03/23 14:42:11;;;;;;;24.20;6.65;;;;;;;;;;4975395;28;20034;-73
2022/03/23 14:44:39;;;;;;;14.60;6.03;;;;;;;;;;4966932;28;20043;-73
2022/03/23 14:47:10;;;;;;;16.35;5.90;;;;;;;;;;4980297;28;20057;-73
2022/03/23 14:49:41;;;;;;;18.37;6.17;;;;;;;;;;4992013;28;20547;-73
2022/03/23 14:52:10;;;;;;;17.70;5.53;;;;;;;;;;4985521;28;20592;-71
2022/03/23 14:54:41;;;;;;;17.08;6.53;;;;;;;;;;4986760;28;20382;-70
2022/03/23 14:57:08;;;;;;;15.98;6.03;;;;;;;;;;4986979;28;20053;-66
2022/03/23 14:59:42;;;;;;;16.25;6.43;;;;;;;;;;4986909;28;20397;-68
2022/03/23 15:02:13;;;;;;;16.75;6.18;;;;;;;;;;4982269;28;20096;-72
2022/03/23 15:04:39;;;;;;;18.63;7.00;;;;;;;;;;4980421;28;20060;-70